Time;durP1;ratioP1;P1;durP2;ratioP2;P2;SDS_P1;SDS_P2;PMS_P1;PMS_P2;Temp;Humidity;BMP_temperature;BMP_pressure;BME280_temperature;BME280_humidity;BME280_pressure;Samples;Min_cycle;Max_cycle;Signal;HPM_P1;HPM_P2
2022/10/30 11:02:41;;;;;;;112.87;87.30;;;26.40;88.50;;;;;;5102827;27;20545;-82
2022/10/30 11:05:47;;;;;;;443.03;370.43;;;26.40;86.00;;;;;;5054273;28;20573;-84
2022/10/30 11:08:16;;;;;;;16.57;12.43;;;26.70;84.40;;;;;;5007161;28;20424;-78
2022/10/30 11:10:42;;;;;;;11.33;10.20;;;26.90;78.70;;;;;;5055284;28;20433;-79
2022/10/30 11:13:13;;;;;;;21.23;13.03;;;27.10;79.60;;;;;;5052184;28;20525;-80
2022/10/30 11:15:49;;;;;;;10.00;7.53;;;27.30;80.20;;;;;;5081278;28;20246;-80
2022/10/30 11:18:15;;;;;;;15.27;10.17;;;27.50;78.70;;;;;;5088221;28;20426;-81
2022/10/30 11:20:47;;;;;;;15.80;7.30;;;27.60;82.40;;;;;;5084929;28;20951;-80
2022/10/30 11:23:33;;;;;;;16.83;8.40;;;27.60;80.10;;;;;;5068944;28;20161;-77
2022/10/30 11:26:00;;;;;;;8.83;6.13;;;27.60;76.20;;;;;;5068163;28;20415;-78
2022/10/30 11:28:37;;;;;;;11.07;9.00;;;27.60;70.40;;;;;;5069097;28;20416;-78
2022/10/30 11:31:18;;;;;;;158.00;120.60;;;27.70;76.20;;;;;;5071514;28;20419;-78
2022/10/30 11:33:44;;;;;;;12.93;9.70;;;27.60;70.30;;;;;;5074501;28;20798;-78
2022/10/30 11:36:10;;;;;;;19.43;15.23;;;27.50;69.20;;;;;;5068231;28;20403;-78
2022/10/30 11:38:35;;;;;;;21.40;13.27;;;27.40;75.60;;;;;;5069751;28;20173;-79
2022/10/30 11:41:02;;;;;;;14.37;12.90;;;27.40;77.60;;;;;;5060614;28;20473;-78
2022/10/30 11:43:28;;;;;;;8.47;7.67;;;27.30;73.50;;;;;;5061238;28;20177;-78
2022/10/30 11:45:54;;;;;;;12.80;9.23;;;27.30;75.30;;;;;;5078620;28;20390;-79
2022/10/30 11:48:23;;;;;;;11.30;8.13;;;27.30;74.10;;;;;;5076836;28;20402;-78
2022/10/30 11:50:50;;;;;;;8.80;8.00;;;27.20;70.20;;;;;;5079336;28;20407;-78
2022/10/30 11:53:23;;;;;;;11.33;8.77;;;27.10;74.50;;;;;;5059110;28;20407;-78
2022/10/30 11:55:50;;;;;;;12.60;8.20;;;26.90;69.80;;;;;;5077009;28;20485;-78
2022/10/30 11:58:35;;;;;;;8.00;7.30;;;26.70;69.70;;;;;;5076545;28;20403;-78
2022/10/30 12:01:03;;;;;;;8.63;6.93;;;26.30;68.70;;;;;;5071521;28;20471;-78
2022/10/30 12:03:38;;;;;;;7.30;6.60;;;26.10;69.80;;;;;;5048299;28;20409;-78
2022/10/30 12:06:10;;;;;;;10.53;7.17;;;26.00;72.20;;;;;;5047481;28;20494;-78
2022/10/30 12:08:36;;;;;;;8.20;7.40;;;25.90;74.40;;;;;;5048492;28;20828;-77
2022/10/30 12:11:04;;;;;;;191.70;131.47;;;25.90;77.00;;;;;;5047311;28;20919;-78
2022/10/30 12:13:38;;;;;;;17.07;13.97;;;25.80;72.80;;;;;;5036992;28;20447;-77
2022/10/30 12:16:13;;;;;;;16.17;13.50;;;25.70;75.70;;;;;;5034380;28;20396;-78
2022/10/30 12:18:40;;;;;;;10.77;9.63;;;25.70;75.20;;;;;;5035051;28;20389;-78
2022/10/30 12:21:08;;;;;;;7.80;7.10;;;25.70;75.30;;;;;;5034063;28;20504;-77
2022/10/30 12:23:34;;;;;;;6.97;6.27;;;25.60;71.60;;;;;;5034882;28;20463;-77
2022/10/30 12:26:08;;;;;;;9.23;6.47;;;25.50;72.40;;;;;;5033966;28;20405;-77
2022/10/30 12:28:35;;;;;;;7.77;7.17;;;25.50;72.80;;;;;;5041858;28;20182;-77
2022/10/30 12:31:18;;;;;;;7.73;6.30;;;25.40;74.40;;;;;;5044007;28;20436;-77
2022/10/30 12:33:52;;;;;;;7.40;6.77;;;25.30;72.80;;;;;;5049514;28;20577;-77
2022/10/30 12:36:29;;;;;;;8.00;6.97;;;25.30;74.60;;;;;;5054060;28;20427;-76
2022/10/30 12:39:10;;;;;;;12.67;7.07;;;25.30;73.50;;;;;;5036728;28;20384;-78
2022/10/30 12:41:58;;;;;;;7.87;7.13;;;25.30;73.40;;;;;;5052287;28;20448;-77
2022/10/30 12:44:29;;;;;;;8.80;7.57;;;25.40;73.30;;;;;;5052936;28;20493;-76
2022/10/30 12:46:59;;;;;;;7.87;7.07;;;25.30;71.10;;;;;;5053046;28;20474;-77
2022/10/30 12:49:34;;;;;;;9.00;6.87;;;25.30;72.10;;;;;;5053511;28;20436;-82
2022/10/30 12:52:26;;;;;;;10.70;7.13;;;25.30;71.00;;;;;;5056928;28;20406;-83
2022/10/30 12:55:16;;;;;;;8.20;6.07;;;25.10;69.10;;;;;;5040808;28;20406;-80
2022/10/30 12:58:17;;;;;;;7.00;6.40;;;25.00;68.80;;;;;;5053947;28;20424;-76
2022/10/30 13:01:13;;;;;;;7.53;6.13;;;24.90;70.50;;;;;;5047650;28;20475;-81
2022/10/30 13:03:52;;;;;;;8.97;6.77;;;24.80;70.00;;;;;;5034546;28;20409;-76
2022/10/30 13:06:32;;;;;;;7.97;6.27;;;24.80;70.50;;;;;;5024335;28;20432;-76
2022/10/30 13:09:04;;;;;;;6.67;6.07;;;24.80;72.80;;;;;;5033408;28;20504;-76
2022/10/30 13:11:51;;;;;;;8.60;6.33;;;24.80;72.20;;;;;;5045290;28;20776;-76
2022/10/30 13:14:24;;;;;;;7.23;6.57;;;24.70;73.40;;;;;;5052199;28;20424;-76
2022/10/30 13:16:51;;;;;;;6.67;6.03;;;24.70;72.20;;;;;;5052801;28;20416;-76
2022/10/30 13:19:17;;;;;;;8.20;6.80;;;24.70;72.60;;;;;;5048231;28;20915;-77
2022/10/30 13:21:48;;;;;;;44.07;37.47;;;24.70;73.30;;;;;;5052645;28;20543;-77
2022/10/30 13:24:29;;;;;;;26.53;19.70;;;24.60;73.20;;;;;;5049347;28;20713;-77
2022/10/30 13:27:04;;;;;;;8.47;7.70;;;24.60;74.00;;;;;;5053807;28;20424;-77
2022/10/30 13:29:38;;;;;;;7.80;7.00;;;24.50;74.00;;;;;;5055648;28;20436;-77
2022/10/30 13:32:33;;;;;;;11.70;7.17;;;24.30;73.30;;;;;;5047770;28;20436;-76
2022/10/30 13:35:25;;;;;;;8.77;7.13;;;24.30;74.30;;;;;;5049709;28;20450;-77
2022/10/30 13:38:15;;;;;;;7.70;7.00;;;24.20;74.70;;;;;;5044424;28;20447;-76
2022/10/30 13:40:49;;;;;;;7.50;6.90;;;24.10;75.50;;;;;;5035912;28;20453;-79
2022/10/30 13:43:24;;;;;;;8.53;7.70;;;24.10;77.10;;;;;;5040757;28;20512;-76
2022/10/30 13:46:03;;;;;;;7.83;7.13;;;24.00;77.20;;;;;;5049489;28;20459;-80
2022/10/30 13:48:52;;;;;;;6.90;6.23;;;24.00;78.00;;;;;;5051593;28;20431;-79
2022/10/30 13:51:30;;;;;;;8.77;7.00;;;23.90;77.50;;;;;;5050926;28;20426;-77
2022/10/30 13:54:07;;;;;;;6.53;5.43;;;23.80;77.00;;;;;;5047885;28;20436;-78
2022/10/30 13:56:34;;;;;;;7.53;6.23;;;23.70;76.40;;;;;;5046369;28;20523;-76
2022/10/30 13:59:18;;;;;;;7.60;6.80;;;23.60;77.10;;;;;;5050021;28;20483;-78
2022/10/30 14:02:08;;;;;;;6.63;5.93;;;23.60;76.60;;;;;;5048573;28;21134;-76
2022/10/30 14:04:46;;;;;;;7.20;6.60;;;23.60;76.70;;;;;;5033688;28;20424;-76
2022/10/30 14:07:37;;;;;;;7.63;6.20;;;23.30;76.90;;;;;;5051815;28;20393;-76
2022/10/30 14:10:15;;;;;;;8.03;5.87;;;23.20;78.60;;;;;;5052585;28;20465;-76
2022/10/30 14:13:03;;;;;;;9.60;6.80;;;23.10;78.50;;;;;;5052460;28;20929;-76
2022/10/30 14:15:29;;;;;;;6.43;5.83;;;23.20;78.70;;;;;;5053228;28;20483;-76
2022/10/30 14:18:13;;;;;;;7.80;5.80;;;23.20;78.20;;;;;;5052564;28;20546;-76
2022/10/30 14:20:45;;;;;;;7.80;6.90;;;23.10;79.00;;;;;;5053300;28;20228;-76
2022/10/30 14:23:44;;;;;;;7.10;5.70;;;23.20;79.00;;;;;;5052515;28;20494;-76
2022/10/30 14:26:09;;;;;;;13.03;7.30;;;23.20;79.40;;;;;;5052385;28;20407;-76
2022/10/30 14:28:44;;;;;;;7.73;6.93;;;23.20;79.50;;;;;;5052574;28;20405;-77
2022/10/30 14:31:18;;;;;;;11.87;7.27;;;23.20;80.10;;;;;;5051934;28;20640;-76
2022/10/30 14:33:46;;;;;;;7.93;7.20;;;23.20;78.70;;;;;;5034986;28;20812;-76
2022/10/30 14:36:19;;;;;;;10.00;8.50;;;23.20;79.40;;;;;;5017585;28;20463;-76
2022/10/30 14:38:54;;;;;;;9.00;8.10;;;23.20;80.60;;;;;;5035115;28;20411;-76
2022/10/30 14:41:46;;;;;;;9.57;7.80;;;23.30;79.80;;;;;;5052025;28;20475;-76
2022/10/30 14:44:42;;;;;;;9.40;8.33;;;23.30;80.40;;;;;;5052151;28;20397;-76
2022/10/30 14:47:26;;;;;;;10.87;7.50;;;23.30;79.90;;;;;;5034412;28;20758;-76
2022/10/30 14:50:13;;;;;;;8.60;7.80;;;23.20;79.50;;;;;;5034802;28;20424;-76
2022/10/30 14:52:47;;;;;;;10.03;8.30;;;23.20;80.30;;;;;;5052576;28;20404;-76
2022/10/30 14:55:28;;;;;;;15.40;7.13;;;23.20;83.00;;;;;;5052036;28;20483;-76
2022/10/30 14:58:00;;;;;;;9.43;6.87;;;23.20;82.80;;;;;;5052590;28;20899;-76
2022/10/30 15:00:25;;;;;;;7.13;6.53;;;23.20;83.40;;;;;;5052460;28;20460;-76
2022/10/30 15:03:09;;;;;;;7.53;6.80;;;23.20;84.70;;;;;;5052133;28;20442;-76
2022/10/30 15:05:47;;;;;;;8.20;7.50;;;23.10;83.40;;;;;;5051846;28;20157;-76
2022/10/30 15:08:21;;;;;;;10.60;8.00;;;23.10;83.60;;;;;;5051487;28;20404;-76
2022/10/30 15:11:01;;;;;;;11.60;8.23;;;23.10;82.60;;;;;;5049936;28;20436;-76
2022/10/30 15:13:27;;;;;;;7.67;6.97;;;23.00;81.90;;;;;;5052353;28;20408;-76
2022/10/30 15:16:07;;;;;;;8.63;7.90;;;23.00;85.00;;;;;;5051869;28;20754;-76
2022/10/30 15:18:33;;;;;;;11.80;8.20;;;22.90;85.50;;;;;;5034492;28;20178;-76
2022/10/30 15:21:04;;;;;;;7.93;7.23;;;22.80;84.20;;;;;;5052187;28;20448;-76
2022/10/30 15:23:33;;;;;;;8.43;7.70;;;22.60;82.90;;;;;;5052564;28;20422;-76
2022/10/30 15:26:04;;;;;;;10.37;7.67;;;22.50;83.80;;;;;;5034326;28;20430;-76
2022/10/30 15:28:33;;;;;;;10.20;7.73;;;22.60;83.60;;;;;;5052180;28;20431;-76
2022/10/30 15:31:01;;;;;;;7.63;6.90;;;22.60;83.20;;;;;;5052011;28;20503;-76
2022/10/30 15:33:30;;;;;;;8.40;7.33;;;22.60;83.00;;;;;;5042305;28;20429;-76
2022/10/30 15:35:56;;;;;;;8.03;6.90;;;22.60;84.20;;;;;;5014545;28;20790;-76
2022/10/30 15:38:22;;;;;;;9.50;6.83;;;22.50;83.50;;;;;;5031673;28;21044;-76
2022/10/30 15:40:48;;;;;;;7.73;7.10;;;22.40;84.20;;;;;;5038179;28;20447;-77
2022/10/30 15:43:16;;;;;;;8.73;6.90;;;22.40;84.80;;;;;;5031657;28;20186;-76
2022/10/30 15:45:44;;;;;;;7.50;6.90;;;22.40;84.10;;;;;;5014657;28;20406;-76
2022/10/30 15:48:26;;;;;;;7.37;6.70;;;22.40;84.00;;;;;;5050323;28;20430;-76
2022/10/30 15:50:57;;;;;;;8.00;6.73;;;22.40;83.90;;;;;;5055992;28;20404;-76
2022/10/30 15:53:29;;;;;;;11.30;7.53;;;22.40;84.50;;;;;;5055269;28;20703;-75
2022/10/30 15:55:58;;;;;;;15.83;8.40;;;22.40;86.50;;;;;;5055745;28;20444;-76
2022/10/30 15:58:24;;;;;;;20.67;8.17;;;22.40;87.00;;;;;;5054562;28;20432;-76
2022/10/30 16:00:58;;;;;;;83.60;67.53;;;22.40;86.80;;;;;;5054882;28;20481;-76
2022/10/30 16:03:24;;;;;;;65.20;48.93;;;22.30;86.30;;;;;;5045446;28;20783;-76
2022/10/30 16:06:01;;;;;;;33.77;28.70;;;22.30;87.60;;;;;;5045916;28;20467;-76
2022/10/30 16:08:27;;;;;;;167.20;140.67;;;22.20;85.60;;;;;;5047010;28;20737;-76
2022/10/30 16:10:53;;;;;;;91.13;74.93;;;22.20;86.20;;;;;;5042726;28;20511;-76
2022/10/30 16:13:26;;;;;;;171.57;150.10;;;22.20;86.00;;;;;;5046425;28;20174;-76
2022/10/30 16:15:52;;;;;;;35.47;27.33;;;22.10;85.80;;;;;;5043721;28;20412;-76
2022/10/30 16:18:29;;;;;;;9.20;8.30;;;22.10;87.00;;;;;;5043960;28;20807;-76
2022/10/30 16:21:04;;;;;;;7.50;6.80;;;22.10;87.70;;;;;;5052819;28;20764;-75
2022/10/30 16:23:40;;;;;;;7.90;7.27;;;22.00;86.20;;;;;;5055295;28;20394;-75
2022/10/30 16:26:06;;;;;;;7.53;6.80;;;22.00;86.00;;;;;;5050047;28;20440;-74
2022/10/30 16:28:36;;;;;;;7.17;6.67;;;22.00;86.70;;;;;;5054104;28;20412;-75
2022/10/30 16:31:06;;;;;;;7.30;6.60;;;21.90;86.40;;;;;;5054765;28;20482;-77
2022/10/30 16:33:35;;;;;;;9.00;7.10;;;21.90;87.80;;;;;;5055108;28;20762;-75
2022/10/30 16:36:03;;;;;;;7.80;7.10;;;21.80;87.50;;;;;;5054441;28;20411;-75
2022/10/30 16:38:36;;;;;;;8.23;7.50;;;21.80;87.10;;;;;;5054610;28;20944;-75
2022/10/30 16:41:04;;;;;;;9.20;7.93;;;21.80;87.50;;;;;;5054981;28;20440;-75
2022/10/30 16:43:32;;;;;;;8.03;7.20;;;21.70;87.10;;;;;;5027525;28;20440;-75
2022/10/30 16:46:27;;;;;;;7.50;6.80;;;21.70;87.10;;;;;;5040182;28;20424;-75
2022/10/30 16:49:01;;;;;;;8.37;7.67;;;21.60;86.80;;;;;;5039636;28;20523;-75
2022/10/30 16:51:28;;;;;;;8.23;6.70;;;21.50;86.30;;;;;;5048311;28;20435;-75
2022/10/30 16:53:54;;;;;;;9.23;7.57;;;21.40;84.60;;;;;;5036443;28;20519;-75
2022/10/30 16:56:25;;;;;;;8.10;7.40;;;21.30;85.50;;;;;;5034178;28;20935;-75
2022/10/30 16:58:53;;;;;;;11.40;10.27;;;21.30;86.90;;;;;;5053334;28;20178;-75
2022/10/30 17:01:26;;;;;;;8.47;7.10;;;21.30;87.10;;;;;;5052508;28;20541;-75
2022/10/30 17:03:53;;;;;;;8.70;8.00;;;21.30;87.10;;;;;;5037057;28;20405;-81
2022/10/30 17:06:36;;;;;;;11.07;7.70;;;21.20;88.00;;;;;;5045403;28;20422;-75
2022/10/30 17:09:07;;;;;;;8.50;7.63;;;21.20;87.60;;;;;;5053870;28;20871;-76
2022/10/30 17:11:36;;;;;;;7.40;6.80;;;21.10;88.80;;;;;;5043900;28;20427;-75
2022/10/30 17:14:15;;;;;;;159.57;117.03;;;21.10;88.30;;;;;;5043147;28;20459;-76
2022/10/30 17:16:54;;;;;;;61.60;48.77;;;21.10;89.70;;;;;;5044005;28;20737;-75
2022/10/30 17:19:28;;;;;;;11.80;10.50;;;21.00;90.20;;;;;;5043267;28;20809;-76
2022/10/30 17:21:56;;;;;;;10.53;9.53;;;21.00;90.70;;;;;;5042941;28;20518;-81
2022/10/30 17:24:33;;;;;;;9.77;8.87;;;20.90;91.00;;;;;;5044427;28;20764;-83
2022/10/30 17:27:04;;;;;;;15.07;10.83;;;20.80;91.30;;;;;;5042993;28;20729;-71
2022/10/30 17:29:36;;;;;;;11.17;9.97;;;20.70;91.50;;;;;;5041895;28;21081;-71
2022/10/30 17:32:20;;;;;;;10.20;9.30;;;20.60;92.20;;;;;;5042443;28;20919;-71
2022/10/30 17:34:47;;;;;;;10.50;9.53;;;20.60;92.50;;;;;;5039485;28;20402;-71
2022/10/30 17:37:15;;;;;;;11.03;9.97;;;20.50;92.50;;;;;;5039083;28;20400;-71
2022/10/30 17:39:41;;;;;;;9.67;8.73;;;20.40;93.20;;;;;;5040346;28;20413;-71
2022/10/30 17:42:09;;;;;;;11.07;10.07;;;20.40;93.70;;;;;;5040348;28;20896;-71
2022/10/30 17:44:35;;;;;;;9.00;8.30;;;20.30;94.00;;;;;;5042033;28;20169;-71
2022/10/30 17:47:12;;;;;;;9.33;8.60;;;20.30;94.10;;;;;;5042624;28;20738;-71
2022/10/30 17:49:38;;;;;;;9.23;8.30;;;20.20;94.20;;;;;;5040382;28;20232;-72
2022/10/30 17:52:04;;;;;;;9.03;7.40;;;20.20;94.40;;;;;;5038721;28;20445;-71
2022/10/30 17:54:29;;;;;;;22.60;19.20;;;20.10;94.40;;;;;;5041726;28;20802;-71
2022/10/30 17:56:57;;;;;;;562.17;398.77;;;20.10;94.60;;;;;;5042601;28;20183;-71
2022/10/30 17:59:23;;;;;;;53.07;42.03;;;20.10;94.70;;;;;;5019879;28;20641;-71
2022/10/30 18:01:49;;;;;;;12.00;10.60;;;20.00;94.60;;;;;;5037710;28;20468;-71
2022/10/30 18:04:16;;;;;;;9.87;8.97;;;20.00;94.30;;;;;;5038360;28;20194;-71
2022/10/30 18:06:43;;;;;;;9.73;8.93;;;20.00;94.60;;;;;;5040029;28;20423;-71
2022/10/30 18:09:09;;;;;;;10.67;8.70;;;19.90;94.80;;;;;;5039442;28;20755;-71
2022/10/30 18:11:35;;;;;;;9.97;9.17;;;19.90;95.00;;;;;;5040019;28;20503;-71
2022/10/30 18:14:01;;;;;;;10.40;9.47;;;19.80;95.20;;;;;;5043567;28;20781;-71
2022/10/30 18:16:27;;;;;;;12.47;8.57;;;19.80;95.30;;;;;;5039792;28;20474;-71
2022/10/30 18:18:53;;;;;;;9.17;8.13;;;19.80;95.30;;;;;;5045712;28;20181;-71
2022/10/30 18:21:21;;;;;;;9.33;8.43;;;19.70;95.30;;;;;;5044473;28;20463;-71
2022/10/30 18:23:47;;;;;;;9.47;8.67;;;19.70;95.80;;;;;;5039221;28;20413;-71
2022/10/30 18:26:18;;;;;;;10.70;7.80;;;19.70;95.60;;;;;;5042943;28;20432;-71
2022/10/30 18:28:44;;;;;;;11.27;8.87;;;19.60;95.90;;;;;;5044324;28;20723;-72
2022/10/30 18:31:12;;;;;;;12.93;9.20;;;19.60;96.30;;;;;;5040134;28;20489;-71
2022/10/30 18:33:38;;;;;;;9.20;8.40;;;19.50;96.40;;;;;;5039105;28;20405;-71
2022/10/30 18:36:10;;;;;;;9.53;8.63;;;19.40;96.60;;;;;;5038081;28;20463;-71
2022/10/30 18:38:36;;;;;;;8.77;7.80;;;19.40;96.50;;;;;;5038575;28;20424;-71
2022/10/30 18:41:02;;;;;;;9.20;8.40;;;19.40;96.60;;;;;;5043710;28;20970;-72
2022/10/30 18:43:31;;;;;;;9.70;8.07;;;19.40;96.80;;;;;;5038614;28;20819;-72
2022/10/30 18:45:56;;;;;;;16.33;8.43;;;19.30;96.80;;;;;;5037979;28;20468;-72
2022/10/30 18:48:22;;;;;;;12.17;8.60;;;19.30;97.10;;;;;;5037368;28;20513;-71
2022/10/30 18:50:48;;;;;;;13.40;8.73;;;19.20;97.10;;;;;;5043082;28;20190;-72
2022/10/30 18:53:17;;;;;;;9.80;8.90;;;19.20;97.30;;;;;;5020621;28;20170;-71
2022/10/30 18:55:45;;;;;;;10.77;7.80;;;19.20;97.40;;;;;;5037216;28;20237;-71
2022/10/30 18:58:11;;;;;;;9.10;8.30;;;19.10;97.60;;;;;;5037218;28;20428;-71
2022/10/30 19:00:38;;;;;;;14.20;8.40;;;19.10;97.70;;;;;;5036449;28;20814;-71
2022/10/30 19:03:04;;;;;;;8.00;7.30;;;19.10;98.00;;;;;;5042195;28;20170;-70
2022/10/30 19:05:36;;;;;;;9.83;8.30;;;19.00;97.70;;;;;;5042587;28;20504;-71
2022/10/30 19:08:03;;;;;;;10.13;7.60;;;19.00;97.60;;;;;;5027863;28;20403;-71
2022/10/30 19:10:31;;;;;;;14.40;8.33;;;19.00;97.80;;;;;;5040284;28;20405;-71
2022/10/30 19:13:05;;;;;;;10.17;8.90;;;19.00;98.20;;;;;;5040949;28;20412;-71
2022/10/30 19:15:35;;;;;;;8.67;7.90;;;19.00;98.00;;;;;;5041975;28;21220;-71
2022/10/30 19:18:02;;;;;;;9.00;8.10;;;19.00;97.90;;;;;;5040166;28;20394;-71
2022/10/30 19:20:29;;;;;;;8.57;7.77;;;19.00;98.30;;;;;;5038330;28;20945;-71
2022/10/30 19:22:55;;;;;;;9.00;7.93;;;18.90;98.30;;;;;;5039414;28;20780;-70
2022/10/30 19:25:27;;;;;;;144.50;93.37;;;18.90;98.30;;;;;;5039294;28;20435;-70
2022/10/30 19:27:53;;;;;;;52.73;42.10;;;18.90;98.60;;;;;;5041939;28;20435;-71
2022/10/30 19:30:20;;;;;;;10.93;9.67;;;18.90;98.90;;;;;;5023622;28;20436;-72
2022/10/30 19:32:46;;;;;;;8.37;7.67;;;18.80;99.00;;;;;;5043581;28;20397;-72
2022/10/30 19:35:13;;;;;;;10.70;8.20;;;18.80;98.70;;;;;;5039897;28;20425;-71
2022/10/30 19:37:40;;;;;;;8.77;7.97;;;18.80;98.90;;;;;;5042304;28;20408;-71
2022/10/30 19:40:27;;;;;;;7.00;6.50;;;18.80;99.00;;;;;;5041013;28;20508;-71
2022/10/30 19:42:53;;;;;;;8.60;7.70;;;18.80;99.20;;;;;;5027690;28;20473;-71
2022/10/30 19:45:21;;;;;;;9.73;8.60;;;18.70;98.90;;;;;;5042486;28;20420;-71
2022/10/30 19:47:49;;;;;;;8.37;7.57;;;18.70;99.40;;;;;;5042969;28;20400;-71
2022/10/30 19:50:21;;;;;;;8.00;7.40;;;18.70;99.30;;;;;;5045770;28;20417;-71
2022/10/30 19:52:47;;;;;;;7.97;7.27;;;18.80;99.30;;;;;;5050137;28;20849;-71
2022/10/30 19:55:14;;;;;;;11.60;8.20;;;18.70;99.30;;;;;;5045843;28;20439;-70
2022/10/30 19:57:40;;;;;;;10.23;7.33;;;18.80;99.40;;;;;;5045779;28;20404;-71
2022/10/30 20:00:19;;;;;;;8.40;7.00;;;18.80;99.60;;;;;;5044555;28;20918;-70
2022/10/30 20:02:45;;;;;;;7.70;6.93;;;18.80;99.30;;;;;;5063326;28;20185;-71
2022/10/30 20:05:15;;;;;;;9.93;7.30;;;18.80;99.20;;;;;;5062256;28;20434;-72
2022/10/30 20:07:41;;;;;;;8.07;7.27;;;18.80;99.50;;;;;;5063166;28;20389;-72
2022/10/30 20:10:18;;;;;;;7.90;7.00;;;18.80;99.40;;;;;;5065069;28;20420;-72
2022/10/30 20:12:46;;;;;;;11.33;7.70;;;18.80;99.80;;;;;;5066562;28;20431;-71
2022/10/30 20:15:18;;;;;;;589.07;392.70;;;18.80;99.90;;;;;;5062360;28;20457;-71
2022/10/30 20:17:45;;;;;;;68.23;47.83;;;18.70;99.90;;;;;;5065616;28;20427;-70
2022/10/30 20:20:17;;;;;;;9.10;8.30;;;18.70;99.90;;;;;;5064325;28;21173;-71
2022/10/30 20:22:43;;;;;;;7.80;6.97;;;18.70;99.90;;;;;;5059162;28;20979;-71
2022/10/30 20:25:10;;;;;;;10.37;8.00;;;18.70;99.90;;;;;;5061063;28;20502;-71
2022/10/30 20:27:36;;;;;;;11.70;7.67;;;18.60;99.90;;;;;;5060771;28;20416;-71
2022/10/30 20:30:03;;;;;;;7.20;6.60;;;18.60;99.90;;;;;;5059757;28;20399;-71
2022/10/30 20:32:28;;;;;;;8.70;6.37;;;18.50;99.90;;;;;;5061021;28;20522;-71
2022/10/30 20:34:54;;;;;;;7.53;6.83;;;18.40;99.90;;;;;;5057578;28;20472;-71
2022/10/30 20:37:20;;;;;;;7.07;6.50;;;18.40;99.90;;;;;;5061057;28;20911;-71
2022/10/30 20:39:48;;;;;;;8.33;7.23;;;18.40;99.90;;;;;;5058630;28;20193;-73
2022/10/30 20:42:19;;;;;;;7.93;7.13;;;18.40;99.90;;;;;;5060339;28;20462;-73
2022/10/30 20:44:45;;;;;;;7.80;7.10;;;18.40;99.90;;;;;;5066414;28;20454;-71
2022/10/30 20:47:11;;;;;;;7.33;6.63;;;18.40;99.90;;;;;;5064289;28;20416;-71
2022/10/30 20:49:36;;;;;;;8.03;7.27;;;18.40;99.90;;;;;;5062770;28;20427;-71
2022/10/30 20:52:02;;;;;;;7.00;6.20;;;18.30;99.90;;;;;;5060257;28;20589;-71
2022/10/30 20:54:28;;;;;;;10.30;7.40;;;18.30;99.90;;;;;;5060595;28;20176;-71
2022/10/30 20:56:54;;;;;;;9.20;7.20;;;18.30;99.90;;;;;;5064411;28;20423;-71
2022/10/30 20:59:20;;;;;;;8.47;6.83;;;18.30;99.90;;;;;;5060798;28;20443;-72
2022/10/30 21:01:46;;;;;;;9.70;7.47;;;18.30;99.90;;;;;;5044632;28;20244;-71
2022/10/30 21:04:12;;;;;;;10.13;6.67;;;18.30;99.90;;;;;;5061989;28;20910;-71
2022/10/30 21:06:38;;;;;;;9.73;6.80;;;18.30;99.90;;;;;;5064216;28;20400;-71
2022/10/30 21:09:04;;;;;;;11.43;6.73;;;18.30;99.90;;;;;;5061859;28;20253;-73
2022/10/30 21:11:30;;;;;;;9.20;7.20;;;18.30;99.90;;;;;;5065926;28;20519;-74
2022/10/30 21:13:56;;;;;;;10.40;6.97;;;18.30;99.90;;;;;;5062068;28;20172;-73
2022/10/30 21:16:23;;;;;;;8.90;8.00;;;18.30;99.90;;;;;;5062557;28;20169;-74
2022/10/30 21:18:53;;;;;;;9.13;7.57;;;18.30;99.90;;;;;;5063044;28;20451;-73
2022/10/30 21:21:18;;;;;;;226.40;155.83;;;18.30;99.90;;;;;;5060099;28;20479;-74
2022/10/30 21:23:44;;;;;;;156.03;86.77;;;18.30;99.90;;;;;;5058802;28;20903;-73
2022/10/30 21:26:11;;;;;;;9.47;8.50;;;18.30;99.90;;;;;;5053389;28;20178;-72
2022/10/30 21:28:37;;;;;;;8.50;7.70;;;18.30;99.90;;;;;;5067562;28;20706;-72
2022/10/30 21:31:06;;;;;;;8.20;7.27;;;18.20;99.90;;;;;;5085511;28;20452;-73
2022/10/30 21:33:33;;;;;;;8.20;7.40;;;18.20;99.90;;;;;;5068733;28;20480;-73
2022/10/30 21:36:07;;;;;;;8.43;7.60;;;18.20;99.90;;;;;;5066610;28;20419;-73
2022/10/30 21:38:32;;;;;;;7.87;7.17;;;18.20;99.90;;;;;;5072132;28;20423;-74
2022/10/30 21:40:58;;;;;;;7.60;6.73;;;18.20;99.90;;;;;;5073591;28;20500;-73
2022/10/30 21:43:24;;;;;;;8.57;6.70;;;18.20;99.90;;;;;;5072501;28;20208;-74
2022/10/30 21:45:50;;;;;;;9.87;7.77;;;18.20;99.90;;;;;;5072494;28;20640;-72
2022/10/30 21:48:16;;;;;;;9.57;7.53;;;18.10;99.90;;;;;;5071780;28;20176;-72
2022/10/30 21:50:42;;;;;;;9.33;7.30;;;18.00;99.90;;;;;;5072813;28;20183;-71
2022/10/30 21:53:08;;;;;;;8.23;7.43;;;18.00;99.90;;;;;;5073342;28;20403;-72
2022/10/30 21:55:37;;;;;;;9.70;7.67;;;17.90;99.90;;;;;;5071940;28;20426;-72
2022/10/30 21:58:03;;;;;;;8.40;7.60;;;17.90;99.90;;;;;;5072853;28;20235;-72
2022/10/30 22:00:29;;;;;;;10.93;7.47;;;17.90;99.90;;;;;;5067475;28;20460;-72
2022/10/30 22:02:55;;;;;;;8.80;7.33;;;17.80;99.90;;;;;;5052727;28;20506;-72
2022/10/30 22:05:21;;;;;;;9.80;7.27;;;17.80;99.90;;;;;;5052264;28;20746;-72
2022/10/30 22:07:47;;;;;;;8.13;7.33;;;17.80;99.90;;;;;;5052983;28;20454;-72
2022/10/30 22:10:13;;;;;;;10.07;7.43;;;17.70;99.90;;;;;;5052925;28;20443;-73
2022/10/30 22:12:39;;;;;;;9.03;7.83;;;17.70;99.90;;;;;;5033868;28;20721;-72
2022/10/30 22:15:05;;;;;;;8.90;7.43;;;17.70;99.90;;;;;;5052808;28;20479;-72
2022/10/30 22:17:30;;;;;;;8.80;7.90;;;17.60;99.90;;;;;;5052047;28;20209;-72
2022/10/30 22:19:56;;;;;;;8.00;7.40;;;17.60;99.90;;;;;;5052517;28;20428;-73
2022/10/30 22:22:22;;;;;;;8.50;7.63;;;17.60;99.90;;;;;;5051806;28;20728;-73
2022/10/30 22:24:48;;;;;;;11.20;9.63;;;17.50;99.90;;;;;;5052500;28;20177;-72
2022/10/30 22:27:13;;;;;;;8.90;8.10;;;17.50;99.90;;;;;;5052646;28;20201;-73
2022/10/30 22:29:39;;;;;;;10.93;8.70;;;17.50;99.90;;;;;;5051634;28;20185;-72
2022/10/30 22:32:05;;;;;;;10.90;8.13;;;17.50;99.90;;;;;;5052606;28;20185;-72
2022/10/30 22:34:31;;;;;;;9.53;8.67;;;17.50;99.90;;;;;;5033940;28;20184;-73
2022/10/30 22:36:56;;;;;;;9.30;8.33;;;17.50;99.90;;;;;;5052251;28;20170;-72
2022/10/30 22:39:22;;;;;;;8.03;7.10;;;17.40;99.90;;;;;;5018059;28;20631;-74
2022/10/30 22:41:48;;;;;;;18.97;7.93;;;17.40;99.90;;;;;;5034356;28;20413;-73
2022/10/30 22:44:17;;;;;;;9.50;8.00;;;17.40;99.90;;;;;;5034629;28;20165;-72
2022/10/30 22:46:43;;;;;;;11.47;8.20;;;17.40;99.90;;;;;;5051482;28;20224;-72
2022/10/30 22:49:09;;;;;;;8.87;7.40;;;17.40;99.90;;;;;;5052136;28;20433;-72
2022/10/30 22:51:36;;;;;;;9.70;7.80;;;17.40;99.90;;;;;;5033469;28;20415;-72
2022/10/30 22:54:04;;;;;;;9.00;8.10;;;17.40;99.90;;;;;;5034362;28;20189;-73
2022/10/30 22:56:32;;;;;;;8.60;7.63;;;17.40;99.90;;;;;;5051244;28;20892;-73
2022/10/30 22:59:01;;;;;;;9.50;8.50;;;17.40;99.90;;;;;;5052398;28;20430;-72
2022/10/30 23:01:31;;;;;;;9.87;7.90;;;17.50;99.90;;;;;;5051077;28;20494;-73
2022/10/30 23:03:59;;;;;;;12.63;8.03;;;17.50;99.90;;;;;;5052137;28;20460;-72
2022/10/30 23:06:26;;;;;;;9.27;7.77;;;17.50;99.90;;;;;;5051508;28;20404;-74
2022/10/30 23:08:55;;;;;;;10.50;8.10;;;17.50;99.90;;;;;;5034347;28;20438;-72
2022/10/30 23:11:21;;;;;;;10.33;9.20;;;17.50;99.90;;;;;;5034016;28;20412;-73
2022/10/30 23:13:47;;;;;;;9.80;8.13;;;17.60;99.90;;;;;;5051325;28;20400;-72
2022/10/30 23:16:16;;;;;;;9.67;8.77;;;17.60;99.90;;;;;;5034524;28;20414;-72
2022/10/30 23:18:43;;;;;;;7.77;7.07;;;17.60;99.90;;;;;;5051225;28;21301;-72
2022/10/30 23:21:15;;;;;;;12.93;8.57;;;17.60;99.90;;;;;;5052030;28;20459;-72
2022/10/30 23:23:41;;;;;;;9.00;8.10;;;17.60;99.90;;;;;;5050905;28;20422;-72
2022/10/30 23:26:09;;;;;;;8.93;8.03;;;17.50;99.90;;;;;;5034090;28;20431;-72
2022/10/30 23:28:34;;;;;;;9.60;8.60;;;17.50;99.90;;;;;;5033369;28;20396;-73
2022/10/30 23:31:06;;;;;;;9.37;7.73;;;17.40;99.90;;;;;;5051812;28;20415;-73
2022/10/30 23:33:32;;;;;;;9.23;8.40;;;17.40;99.90;;;;;;5033754;28;20244;-73
2022/10/30 23:35:59;;;;;;;9.57;8.40;;;17.40;99.90;;;;;;5051989;28;20797;-73
2022/10/30 23:38:25;;;;;;;9.50;8.60;;;17.40;99.90;;;;;;5051584;28;20174;-73
2022/10/30 23:40:50;;;;;;;9.27;8.33;;;17.40;99.90;;;;;;5051647;28;20454;-72
2022/10/30 23:43:16;;;;;;;10.20;8.30;;;17.30;99.90;;;;;;5049810;28;20183;-73
2022/10/30 23:45:42;;;;;;;9.63;8.47;;;17.30;99.90;;;;;;5050608;28;20189;-73
2022/10/30 23:48:07;;;;;;;9.43;8.47;;;17.30;99.90;;;;;;5050174;28;20180;-72
2022/10/30 23:50:34;;;;;;;9.10;8.20;;;17.30;99.90;;;;;;5049774;28;20613;-72
2022/10/30 23:53:00;;;;;;;9.20;8.30;;;17.30;99.90;;;;;;5050498;28;20184;-73
2022/10/30 23:55:29;;;;;;;9.33;8.10;;;17.30;99.90;;;;;;5011676;28;20427;-73
2022/10/30 23:57:55;;;;;;;10.73;9.10;;;17.20;99.90;;;;;;5048932;28;20428;-72
